Time;durP1;ratioP1;P1;durP2;ratioP2;P2;SDS_P1;SDS_P2;PMS_P1;PMS_P2;Temp;Humidity;BMP_temperature;BMP_pressure;BME280_temperature;BME280_humidity;BME280_pressure;Samples;Min_cycle;Max_cycle;Signal;HPM_P1;HPM_P2
2023/02/06 00:00:18;;;;;;;21.48;3.53;;;5.70;99.90;;;;;;5024246;28;20072;-38
2023/02/06 00:02:44;;;;;;;17.58;4.35;;;5.70;99.90;;;;;;5018609;28;20026;-37
2023/02/06 00:05:09;;;;;;;13.77;2.92;;;5.70;99.90;;;;;;5023824;28;20022;-39
2023/02/06 00:07:35;;;;;;;23.13;2.88;;;5.70;99.90;;;;;;5028677;28;20100;-38
2023/02/06 00:10:01;;;;;;;17.17;3.25;;;5.70;99.90;;;;;;5032460;28;20022;-40
2023/02/06 00:12:26;;;;;;;19.13;2.50;;;5.70;99.90;;;;;;5028126;28;20021;-39
2023/02/06 00:14:52;;;;;;;12.52;2.65;;;5.80;99.90;;;;;;5021854;28;20496;-39
2023/02/06 00:17:17;;;;;;;21.00;3.05;;;5.80;99.90;;;;;;5031251;28;20029;-36
2023/02/06 00:19:43;;;;;;;27.02;3.58;;;5.80;99.90;;;;;;5032185;28;20434;-36
2023/02/06 00:22:09;;;;;;;11.15;2.45;;;5.80;99.90;;;;;;5033016;28;20029;-37
2023/02/06 00:24:35;;;;;;;27.33;3.00;;;5.80;99.90;;;;;;5026855;28;20080;-37
2023/02/06 00:27:01;;;;;;;14.05;3.05;;;5.80;99.90;;;;;;5032956;28;20514;-36
2023/02/06 00:29:26;;;;;;;16.48;2.28;;;5.80;99.90;;;;;;5034116;28;20466;-39
2023/02/06 00:31:52;;;;;;;18.48;2.60;;;5.80;99.90;;;;;;5034255;28;20026;-39
2023/02/06 00:34:18;;;;;;;15.90;2.55;;;5.70;99.90;;;;;;5027467;28;20367;-37
2023/02/06 00:36:43;;;;;;;15.57;2.38;;;5.80;99.90;;;;;;5029748;28;20033;-35
2023/02/06 00:39:09;;;;;;;23.27;2.83;;;5.80;99.90;;;;;;5034081;28;20531;-36
2023/02/06 00:41:34;;;;;;;16.35;2.75;;;5.80;99.90;;;;;;5033701;28;20036;-42
2023/02/06 00:44:00;;;;;;;17.75;2.00;;;5.80;99.90;;;;;;5032854;28;20036;-39
2023/02/06 00:46:26;;;;;;;16.08;2.63;;;5.90;99.90;;;;;;5024744;28;20485;-41
2023/02/06 00:48:51;;;;;;;18.10;2.55;;;5.80;99.90;;;;;;5028088;28;20025;-40
2023/02/06 00:51:17;;;;;;;14.52;3.03;;;5.80;99.90;;;;;;5027239;28;20046;-40
2023/02/06 00:53:42;;;;;;;14.15;2.55;;;5.80;99.90;;;;;;5034466;28;20103;-42
2023/02/06 00:56:08;;;;;;;15.75;3.20;;;5.80;99.90;;;;;;5031477;28;20037;-41
2023/02/06 00:58:34;;;;;;;20.33;2.13;;;5.80;99.90;;;;;;5017897;28;20466;-41
2023/02/06 01:00:59;;;;;;;16.42;2.90;;;5.80;99.90;;;;;;5026849;28;20033;-42
2023/02/06 01:03:25;;;;;;;20.27;2.00;;;5.80;99.90;;;;;;5032200;28;20100;-43
2023/02/06 01:05:50;;;;;;;12.35;1.95;;;5.90;99.90;;;;;;5030397;28;20057;-42
2023/02/06 01:08:16;;;;;;;17.52;2.28;;;5.90;99.90;;;;;;5033683;28;20026;-44
2023/02/06 01:10:43;;;;;;;22.48;2.05;;;5.90;99.90;;;;;;5031838;28;20022;-39
2023/02/06 01:13:09;;;;;;;30.05;3.38;;;5.90;99.90;;;;;;5023004;28;20512;-40
2023/02/06 01:15:36;;;;;;;15.77;1.85;;;5.90;99.90;;;;;;5029532;28;20045;-44
2023/02/06 01:18:02;;;;;;;15.10;2.38;;;5.90;99.90;;;;;;5029364;28;20037;-46
2023/02/06 01:20:27;;;;;;;17.27;1.88;;;6.00;99.90;;;;;;5020949;28;20494;-43
2023/02/06 01:22:53;;;;;;;15.20;1.85;;;6.00;99.90;;;;;;5013760;28;20030;-43
2023/02/06 01:25:19;;;;;;;20.52;1.58;;;6.00;99.90;;;;;;5023135;28;20037;-42
2023/02/06 01:27:44;;;;;;;18.25;2.60;;;6.00;99.90;;;;;;5031168;28;20033;-41
2023/02/06 01:30:11;;;;;;;22.80;2.25;;;6.10;99.90;;;;;;5031708;28;20142;-40
2023/02/06 01:32:39;;;;;;;20.27;2.95;;;6.00;99.90;;;;;;5016901;28;20025;-40
2023/02/06 01:35:08;;;;;;;33.75;3.47;;;6.00;99.90;;;;;;5027979;28;20037;-43
2023/02/06 01:37:35;;;;;;;27.75;3.38;;;6.00;99.90;;;;;;5031984;28;20485;-48
2023/02/06 01:40:00;;;;;;;18.13;3.17;;;6.00;99.90;;;;;;5032711;28;20029;-41
2023/02/06 01:42:26;;;;;;;19.35;2.55;;;6.00;99.90;;;;;;5033629;28;20028;-40
2023/02/06 01:45:25;;;;;;;9.80;1.92;;;6.00;99.90;;;;;;5032108;28;20109;-40
2023/02/06 01:48:00;;;;;;;25.05;2.80;;;6.00;99.90;;;;;;5024316;28;20082;-39
2023/02/06 01:53:13;;;;;;;14.85;1.80;;;6.00;99.90;;;;;;5030699;28;20405;-40
2023/02/06 01:55:40;;;;;;;21.83;2.60;;;6.10;99.90;;;;;;5031076;28;20018;-42
2023/02/06 01:58:10;;;;;;;23.40;2.78;;;6.10;99.90;;;;;;5022601;28;20068;-41
2023/02/06 02:00:35;;;;;;;9.75;3.78;;;6.10;99.90;;;;;;5032162;28;20033;-42
2023/02/06 02:03:02;;;;;;;11.18;1.48;;;6.10;99.90;;;;;;5029172;28;20033;-42
2023/02/06 02:05:28;;;;;;;17.23;2.20;;;6.10;99.90;;;;;;5029356;28;20478;-45
2023/02/06 02:08:03;;;;;;;15.35;1.98;;;6.10;99.90;;;;;;5029232;28;20048;-41
2023/02/06 02:10:30;;;;;;;14.27;2.53;;;6.10;99.90;;;;;;5031885;28;20025;-41
2023/02/06 02:12:56;;;;;;;14.85;2.63;;;6.10;99.90;;;;;;5032864;28;20113;-41
2023/02/06 02:15:29;;;;;;;8.70;2.05;;;6.10;99.90;;;;;;5032230;28;20072;-42
2023/02/06 02:18:39;;;;;;;18.83;3.20;;;6.10;99.90;;;;;;5030507;28;20500;-39
2023/02/06 02:21:32;;;;;;;21.75;2.85;;;6.10;99.90;;;;;;5023640;28;20100;-43
2023/02/06 02:24:07;;;;;;;13.93;1.52;;;6.10;99.90;;;;;;5022256;28;20521;-41
2023/02/06 02:26:48;;;;;;;25.83;4.55;;;6.00;99.90;;;;;;5023508;28;20038;-41
2023/02/06 02:29:25;;;;;;;9.13;1.88;;;6.00;99.90;;;;;;5011715;28;20498;-37
2023/02/06 02:32:14;;;;;;;23.73;1.90;;;6.00;99.90;;;;;;5014642;28;20521;-37
2023/02/06 02:34:56;;;;;;;6.55;1.52;;;5.90;99.90;;;;;;5013798;28;20116;-37
2023/02/06 02:37:50;;;;;;;13.00;1.73;;;5.90;99.90;;;;;;5021894;28;20037;-39
2023/02/06 02:40:35;;;;;;;16.58;2.10;;;5.90;99.90;;;;;;5028353;28;20040;-38
2023/02/06 02:43:06;;;;;;;11.20;1.77;;;5.90;99.90;;;;;;5031026;28;20034;-35
2023/02/06 02:45:56;;;;;;;19.55;2.20;;;5.80;99.90;;;;;;5026635;28;20046;-39
2023/02/06 02:48:50;;;;;;;14.48;1.73;;;5.80;99.90;;;;;;5031389;28;20033;-39
2023/02/06 02:51:16;;;;;;;11.50;1.83;;;5.80;99.90;;;;;;5034582;28;20043;-34
2023/02/06 02:53:42;;;;;;;14.25;1.50;;;5.70;99.90;;;;;;5032940;28;20347;-35
2023/02/06 02:56:14;;;;;;;11.45;2.03;;;5.70;99.90;;;;;;5022401;28;20034;-32
2023/02/06 02:58:40;;;;;;;13.80;1.42;;;5.70;99.90;;;;;;5015288;28;20033;-38
2023/02/06 03:01:11;;;;;;;24.33;3.33;;;5.70;99.90;;;;;;5030041;28;20026;-36
2023/02/06 03:03:39;;;;;;;8.50;1.40;;;5.70;99.90;;;;;;5036202;28;20022;-37
2023/02/06 03:06:32;;;;;;;6.00;1.35;;;5.60;99.90;;;;;;5032787;28;20044;-35
2023/02/06 03:09:04;;;;;;;10.90;2.30;;;5.60;99.90;;;;;;5036087;28;20033;-35
2023/02/06 03:11:30;;;;;;;18.80;2.05;;;5.60;99.90;;;;;;5030712;28;20617;-33
2023/02/06 03:14:09;;;;;;;18.65;2.55;;;5.60;99.90;;;;;;5031337;28;20025;-39
2023/02/06 03:16:45;;;;;;;6.55;1.33;;;5.60;99.90;;;;;;5034080;28;20525;-37
2023/02/06 03:19:15;;;;;;;16.80;3.08;;;5.60;99.90;;;;;;5030116;28;20109;-40
2023/02/06 03:21:43;;;;;;;13.82;1.73;;;5.50;99.90;;;;;;5016316;28;20072;-36
2023/02/06 03:24:14;;;;;;;17.77;2.20;;;5.50;99.90;;;;;;5026358;28;20037;-35
2023/02/06 03:26:41;;;;;;;10.90;1.42;;;5.50;99.90;;;;;;5024287;28;20030;-38
2023/02/06 03:29:11;;;;;;;20.02;1.80;;;5.40;99.90;;;;;;5018615;28;20017;-37
2023/02/06 03:31:53;;;;;;;9.93;1.23;;;5.40;99.90;;;;;;5033470;28;20490;-37
2023/02/06 03:34:44;;;;;;;17.10;2.78;;;5.30;99.90;;;;;;5015252;28;20383;-36
2023/02/06 03:37:10;;;;;;;17.70;2.40;;;5.30;99.90;;;;;;5018486;28;20057;-36
2023/02/06 03:39:37;;;;;;;9.82;1.35;;;5.30;99.90;;;;;;5031329;28;20056;-36
2023/02/06 03:42:04;;;;;;;9.77;1.60;;;5.20;99.90;;;;;;5034465;28;20504;-37
2023/02/06 03:44:34;;;;;;;8.52;2.08;;;5.20;99.90;;;;;;5029744;28;20041;-36
2023/02/06 03:47:01;;;;;;;11.50;1.67;;;5.20;99.90;;;;;;5023574;28;20060;-36
2023/02/06 03:52:19;;;;;;;21.02;1.70;;;5.10;99.90;;;;;;5015639;28;20049;-37
2023/02/06 03:54:51;;;;;;;19.25;3.40;;;5.00;99.90;;;;;;5020684;28;20026;-38
2023/02/06 03:57:20;;;;;;;12.13;1.42;;;4.90;99.90;;;;;;5021405;28;20477;-38
2023/02/06 03:59:46;;;;;;;11.77;1.65;;;4.80;99.90;;;;;;5034118;28;20061;-35
2023/02/06 04:02:14;;;;;;;9.52;2.33;;;4.90;99.90;;;;;;5025113;28;20041;-41
2023/02/06 04:04:41;;;;;;;15.27;1.70;;;4.90;99.90;;;;;;5033838;28;20104;-39
2023/02/06 04:07:11;;;;;;;16.77;1.85;;;4.80;99.90;;;;;;5034996;28;20486;-37
2023/02/06 04:09:38;;;;;;;9.63;2.33;;;4.80;99.90;;;;;;5025436;28;20018;-38
2023/02/06 04:12:04;;;;;;;12.02;1.65;;;4.80;99.90;;;;;;5015059;28;20076;-35
2023/02/06 04:14:29;;;;;;;8.15;1.27;;;4.80;99.90;;;;;;5019484;28;20458;-38
2023/02/06 04:16:55;;;;;;;17.23;1.75;;;4.80;99.90;;;;;;5032837;28;20049;-39
2023/02/06 04:19:20;;;;;;;19.00;2.20;;;4.70;99.90;;;;;;5015729;28;20040;-38
2023/02/06 04:21:46;;;;;;;6.72;2.05;;;4.70;99.90;;;;;;5021751;28;20474;-37
2023/02/06 04:24:12;;;;;;;8.88;2.00;;;4.70;99.90;;;;;;5033316;28;20038;-38
2023/02/06 04:26:38;;;;;;;11.40;2.00;;;4.60;99.90;;;;;;5027699;28;20515;-36
2023/02/06 04:29:03;;;;;;;13.57;3.38;;;4.50;99.90;;;;;;5027210;28;20111;-34
2023/02/06 04:31:29;;;;;;;23.33;2.03;;;4.50;99.90;;;;;;5034472;28;20486;-36
2023/02/06 04:33:54;;;;;;;6.72;1.50;;;4.50;99.90;;;;;;5027312;28;20021;-38
2023/02/06 04:36:20;;;;;;;21.83;1.85;;;4.50;99.90;;;;;;5014709;28;20502;-38
2023/02/06 04:38:45;;;;;;;12.57;1.88;;;4.50;99.90;;;;;;5014680;28;20069;-38
2023/02/06 04:41:11;;;;;;;13.68;1.65;;;4.50;99.90;;;;;;5018764;28;20545;-37
2023/02/06 04:43:37;;;;;;;15.68;2.08;;;4.50;99.90;;;;;;5027166;28;20120;-38
2023/02/06 04:46:02;;;;;;;8.85;1.40;;;4.60;99.90;;;;;;5034230;28;20470;-36
2023/02/06 04:51:13;;;;;;;14.38;1.73;;;4.50;99.90;;;;;;5028516;28;20037;-38
2023/02/06 04:53:38;;;;;;;14.50;1.98;;;4.50;99.90;;;;;;5028706;28;20029;-35
2023/02/06 04:56:07;;;;;;;16.73;1.67;;;4.40;99.90;;;;;;5034106;28;20033;-35
2023/02/06 04:58:33;;;;;;;21.52;2.45;;;4.40;99.90;;;;;;5026111;28;20474;-49
2023/02/06 05:00:59;;;;;;;9.88;2.20;;;4.40;99.90;;;;;;5034276;28;20030;-40
2023/02/06 05:03:25;;;;;;;12.75;1.77;;;4.40;99.90;;;;;;5025840;28;20026;-41
2023/02/06 05:05:51;;;;;;;10.05;2.45;;;4.50;99.90;;;;;;5017435;28;20107;-39
2023/02/06 05:08:17;;;;;;;7.55;1.38;;;4.50;99.90;;;;;;5027925;28;20502;-40
2023/02/06 05:10:43;;;;;;;15.30;2.20;;;4.50;99.90;;;;;;5032789;28;20347;-39
2023/02/06 05:13:10;;;;;;;16.67;1.77;;;4.50;99.90;;;;;;5016808;28;20113;-38
2023/02/06 05:15:36;;;;;;;10.45;1.80;;;4.50;99.90;;;;;;5015248;28;20452;-41
2023/02/06 05:18:01;;;;;;;8.93;2.58;;;4.40;99.90;;;;;;5014052;28;20033;-39
2023/02/06 05:20:27;;;;;;;19.17;1.77;;;4.40;99.90;;;;;;5024671;28;20401;-41
2023/02/06 05:22:53;;;;;;;12.60;2.30;;;4.40;99.90;;;;;;5027903;28;20045;-42
2023/02/06 05:25:20;;;;;;;14.52;2.38;;;4.30;99.90;;;;;;5013994;28;20088;-40
2023/02/06 05:27:46;;;;;;;9.48;1.60;;;4.30;99.90;;;;;;5020508;28;20034;-41
2023/02/06 05:30:13;;;;;;;8.52;1.45;;;4.30;99.90;;;;;;5032800;28;20024;-41
2023/02/06 05:32:39;;;;;;;22.58;2.78;;;4.30;99.90;;;;;;5033438;28;20101;-40
2023/02/06 05:35:05;;;;;;;11.50;2.22;;;4.40;99.90;;;;;;5033596;28;20430;-40
2023/02/06 05:37:31;;;;;;;6.47;1.75;;;4.30;99.90;;;;;;5024516;28;20038;-41
2023/02/06 05:39:57;;;;;;;17.90;2.00;;;4.30;99.90;;;;;;5026635;28;20389;-39
2023/02/06 05:42:22;;;;;;;9.55;1.70;;;4.30;99.90;;;;;;5031502;28;20041;-43
2023/02/06 05:44:48;;;;;;;15.90;2.38;;;4.30;99.90;;;;;;5028386;28;20026;-40
2023/02/06 05:47:14;;;;;;;15.35;2.63;;;4.30;99.90;;;;;;5028372;28;20462;-42
2023/02/06 05:49:42;;;;;;;12.15;2.13;;;4.20;99.90;;;;;;5028777;28;20033;-39
2023/02/06 05:52:08;;;;;;;6.32;2.00;;;4.20;99.90;;;;;;5029411;28;20029;-39
2023/02/06 05:54:34;;;;;;;5.80;1.75;;;4.10;99.90;;;;;;5025602;28;20485;-35
2023/02/06 05:57:00;;;;;;;14.52;2.72;;;4.10;99.90;;;;;;5031582;28;20095;-37
2023/02/06 05:59:25;;;;;;;16.25;2.03;;;4.20;99.90;;;;;;5019615;28;20025;-37
2023/02/06 06:01:51;;;;;;;11.10;2.00;;;4.20;99.90;;;;;;5027783;28;20474;-48
2023/02/06 06:04:17;;;;;;;13.00;2.40;;;4.20;99.90;;;;;;5023200;28;20064;-41
2023/02/06 06:06:42;;;;;;;16.75;2.50;;;4.20;99.90;;;;;;5029215;28;20033;-32
2023/02/06 06:09:08;;;;;;;11.88;2.35;;;4.20;99.90;;;;;;5028978;28;20033;-39
2023/02/06 06:11:33;;;;;;;8.70;2.25;;;4.20;99.90;;;;;;5031304;28;20068;-33
2023/02/06 06:13:59;;;;;;;9.15;2.30;;;4.20;99.90;;;;;;5025415;28;20030;-35
2023/02/06 06:16:26;;;;;;;9.13;3.25;;;4.10;99.90;;;;;;5025702;28;20487;-36
2023/02/06 06:18:52;;;;;;;9.32;2.72;;;4.20;99.90;;;;;;5018175;28;20394;-39
2023/02/06 06:21:17;;;;;;;22.13;2.95;;;4.20;99.90;;;;;;5030589;28;20025;-37
2023/02/06 06:23:43;;;;;;;23.05;3.60;;;4.30;99.90;;;;;;5017853;28;20478;-37
2023/02/06 06:26:09;;;;;;;6.32;2.15;;;4.30;99.90;;;;;;5024852;28;20045;-37
2023/02/06 06:28:37;;;;;;;17.35;2.88;;;4.30;99.90;;;;;;5024031;28;20025;-35
2023/02/06 06:31:04;;;;;;;;;;;4.30;99.90;;;;;;5019886;28;20495;-36
2023/02/06 06:33:30;;;;;;;12.43;2.33;;;4.30;99.90;;;;;;5027085;28;20004;-38
2023/02/06 06:35:56;;;;;;;22.23;2.20;;;4.40;99.90;;;;;;5024594;28;20125;-39
2023/02/06 06:38:21;;;;;;;15.20;2.35;;;4.40;99.90;;;;;;5012800;28;20065;-37
2023/02/06 06:40:47;;;;;;;13.32;1.90;;;4.40;99.90;;;;;;5023087;28;20063;-39
2023/02/06 06:43:13;;;;;;;7.28;2.15;;;4.50;99.90;;;;;;5022372;28;20018;-38
2023/02/06 06:45:38;;;;;;;20.05;2.80;;;4.50;99.90;;;;;;5026208;28;20099;-38
2023/02/06 06:48:04;;;;;;;6.82;2.58;;;4.50;99.90;;;;;;5025857;28;20052;-38
2023/02/06 06:50:30;;;;;;;14.70;2.95;;;4.50;99.90;;;;;;5032450;28;20486;-32
2023/02/06 06:52:55;;;;;;;11.77;1.85;;;4.60;99.90;;;;;;5024885;28;20548;-35
2023/02/06 06:55:22;;;;;;;11.70;2.45;;;4.50;99.90;;;;;;5012645;28;20033;-37
2023/02/06 06:57:47;;;;;;;14.73;2.17;;;4.50;99.90;;;;;;5012946;28;20617;-36
2023/02/06 07:00:14;;;;;;;10.90;2.40;;;4.50;99.90;;;;;;5024542;28;20025;-38
2023/02/06 07:02:40;;;;;;;19.23;2.15;;;4.60;99.90;;;;;;5029785;28;20160;-38
2023/02/06 07:05:06;;;;;;;18.17;2.00;;;4.60;99.90;;;;;;5022775;28;20028;-34
2023/02/06 07:07:32;;;;;;;18.58;2.88;;;4.60;99.90;;;;;;5031703;28;20470;-48
2023/02/06 07:09:58;;;;;;;9.13;2.65;;;4.60;99.90;;;;;;5032312;28;20036;-40
2023/02/06 07:12:25;;;;;;;6.82;2.47;;;4.60;99.90;;;;;;5030385;28;20040;-43
2023/02/06 07:14:51;;;;;;;7.65;2.85;;;4.60;99.90;;;;;;5023074;28;20516;-39
2023/02/06 07:17:16;;;;;;;11.73;2.10;;;4.60;99.90;;;;;;5021781;28;20038;-37
2023/02/06 07:19:46;;;;;;;21.70;2.58;;;4.50;99.90;;;;;;5032208;28;20021;-39
2023/02/06 07:22:13;;;;;;;8.10;1.55;;;4.50;99.90;;;;;;5026084;28;20359;-38
2023/02/06 07:24:38;;;;;;;10.80;2.35;;;4.60;99.90;;;;;;5026387;28;20034;-38
2023/02/06 07:27:04;;;;;;;18.75;3.20;;;4.60;99.90;;;;;;5037810;28;20044;-35
2023/02/06 07:29:30;;;;;;;7.80;2.38;;;4.60;99.90;;;;;;5015157;28;20374;-35
2023/02/06 07:31:58;;;;;;;15.00;2.15;;;4.70;99.90;;;;;;5025053;28;20391;-40
2023/02/06 07:34:23;;;;;;;;;;;4.60;99.90;;;;;;5026255;28;20022;-35
2023/02/06 07:36:49;;;;;;;13.52;1.77;;;4.70;99.90;;;;;;5023619;28;20369;-37
2023/02/06 07:39:16;;;;;;;17.10;2.80;;;4.70;99.90;;;;;;5029031;28;20420;-38
2023/02/06 07:41:41;;;;;;;13.02;2.33;;;4.80;99.90;;;;;;5025912;28;20025;-37
2023/02/06 07:44:09;;;;;;;17.73;2.90;;;4.80;99.90;;;;;;5022376;28;20033;-36
2023/02/06 07:46:35;;;;;;;15.60;3.30;;;4.90;99.90;;;;;;5027312;28;20036;-37
2023/02/06 07:49:00;;;;;;;11.00;2.90;;;5.00;99.90;;;;;;5035339;28;20490;-38
2023/02/06 07:51:26;;;;;;;9.63;3.08;;;5.00;99.90;;;;;;5019102;28;20022;-37
2023/02/06 07:53:52;;;;;;;11.23;2.60;;;5.10;99.90;;;;;;5030217;28;20108;-40
2023/02/06 07:56:19;;;;;;;23.70;3.00;;;5.10;99.90;;;;;;5018710;28;20025;-41
2023/02/06 07:58:49;;;;;;;9.88;2.70;;;5.20;99.90;;;;;;5033801;28;20029;-36
2023/02/06 08:01:15;;;;;;;12.07;2.38;;;5.30;99.90;;;;;;5023517;28;20474;-38
2023/02/06 08:03:40;;;;;;;11.57;3.05;;;5.30;99.90;;;;;;5019633;28;20036;-37
2023/02/06 08:06:08;;;;;;;24.27;3.03;;;5.30;99.90;;;;;;5026301;28;20033;-38
2023/02/06 08:08:34;;;;;;;19.92;4.07;;;5.40;99.90;;;;;;5025154;28;20143;-38
2023/02/06 08:11:04;;;;;;;11.07;3.25;;;5.50;99.90;;;;;;5029480;28;20530;-35
2023/02/06 08:13:30;;;;;;;13.07;3.17;;;5.50;99.90;;;;;;5019267;28;20013;-37
2023/02/06 08:15:56;;;;;;;22.17;2.47;;;5.60;99.90;;;;;;5031043;28;20046;-38
2023/02/06 08:18:21;;;;;;;21.15;4.55;;;5.60;99.90;;;;;;5020522;28;20031;-38
2023/02/06 08:20:47;;;;;;;15.27;3.15;;;5.70;99.90;;;;;;5019914;28;20104;-39
2023/02/06 08:23:13;;;;;;;23.38;3.75;;;5.70;99.90;;;;;;5025911;28;20044;-35
2023/02/06 08:25:38;;;;;;;16.50;2.70;;;5.70;99.90;;;;;;5030040;28;20486;-36
2023/02/06 08:28:04;;;;;;;18.55;3.88;;;5.80;99.90;;;;;;5029687;28;20088;-38
2023/02/06 08:30:31;;;;;;;19.27;3.47;;;5.80;99.90;;;;;;5034499;28;20110;-33
2023/02/06 08:32:56;;;;;;;17.75;3.65;;;5.90;99.90;;;;;;5023284;28;20033;-33
2023/02/06 08:35:22;;;;;;;34.10;3.85;;;5.90;99.90;;;;;;5025548;28;20029;-34
2023/02/06 08:37:48;;;;;;;26.13;4.72;;;5.90;99.90;;;;;;5022234;28;20421;-39
2023/02/06 08:40:14;;;;;;;19.25;3.40;;;6.00;99.90;;;;;;5021663;28;20109;-38
2023/02/06 08:42:40;;;;;;;19.17;3.10;;;6.10;99.90;;;;;;5019676;28;20040;-34
2023/02/06 08:45:06;;;;;;;10.77;2.65;;;6.20;99.90;;;;;;5016604;28;20038;-35
2023/02/06 08:47:31;;;;;;;6.95;2.50;;;6.20;99.90;;;;;;5023141;28;20481;-39
2023/02/06 08:49:57;;;;;;;14.27;3.45;;;6.30;99.90;;;;;;5034064;28;20180;-38
2023/02/06 08:52:23;;;;;;;13.32;2.92;;;6.40;99.90;;;;;;5033602;28;20049;-35
2023/02/06 08:54:50;;;;;;;22.10;3.28;;;6.40;99.90;;;;;;5030280;28;20026;-38
2023/02/06 08:57:16;;;;;;;12.85;3.17;;;6.40;99.90;;;;;;5023074;28;20370;-36
2023/02/06 09:00:00;;;;;;;23.48;4.10;;;6.50;99.90;;;;;;5033133;28;20017;-38
2023/02/06 09:02:25;;;;;;;22.08;3.17;;;6.50;99.90;;;;;;5018805;28;20481;-39
2023/02/06 09:04:51;;;;;;;14.27;3.03;;;6.50;99.90;;;;;;5025366;28;20048;-39
2023/02/06 09:07:17;;;;;;;13.73;3.03;;;6.60;99.90;;;;;;5016469;28;20064;-38
2023/02/06 09:09:42;;;;;;;13.73;3.25;;;6.60;99.90;;;;;;5026774;28;20027;-36
2023/02/06 09:12:09;;;;;;;27.60;4.30;;;6.60;99.90;;;;;;5017562;28;20101;-38
2023/02/06 09:14:35;;;;;;;18.70;3.35;;;6.60;99.90;;;;;;5032194;28;20029;-35
2023/02/06 09:17:01;;;;;;;15.45;3.30;;;6.70;99.90;;;;;;5030802;28;20038;-33
2023/02/06 09:19:27;;;;;;;13.40;2.90;;;6.70;99.90;;;;;;5022247;28;20017;-35
2023/02/06 09:21:53;;;;;;;17.65;4.05;;;6.80;99.90;;;;;;5023496;28;20022;-36
2023/02/06 09:24:19;;;;;;;14.35;2.78;;;7.00;99.90;;;;;;5032626;28;20036;-34
2023/02/06 09:26:45;;;;;;;16.50;2.80;;;7.00;99.90;;;;;;5024763;28;20065;-34
2023/02/06 09:29:11;;;;;;;18.33;3.00;;;7.00;99.90;;;;;;5022174;28;20480;-37
2023/02/06 09:31:38;;;;;;;21.27;3.50;;;7.10;99.90;;;;;;5026122;28;20573;-39
2023/02/06 09:34:06;;;;;;;18.13;3.58;;;7.10;99.90;;;;;;5029146;28;20022;-40
2023/02/06 09:36:33;;;;;;;8.38;2.67;;;7.10;99.90;;;;;;5027100;28;20087;-43
2023/02/06 09:39:01;;;;;;;18.27;3.08;;;7.10;99.90;;;;;;5022422;28;20031;-42
2023/02/06 09:41:47;;;;;;;11.18;3.10;;;7.20;99.90;;;;;;5023609;28;20057;-39
2023/02/06 09:44:21;;;;;;;11.48;2.83;;;7.30;99.90;;;;;;5030905;28;20029;-40
2023/02/06 09:47:05;;;;;;;13.00;2.85;;;7.30;99.90;;;;;;5031633;28;20449;-43
2023/02/06 09:50:06;;;;;;;21.45;3.22;;;7.50;99.90;;;;;;5028940;28;20122;-43
2023/02/06 09:52:39;;;;;;;21.48;2.97;;;7.50;99.90;;;;;;5030788;28;20053;-40
2023/02/06 09:55:13;;;;;;;12.68;2.55;;;7.60;99.90;;;;;;5022464;28;20467;-41
2023/02/06 09:57:52;;;;;;;23.10;3.17;;;7.60;99.90;;;;;;5012407;28;20479;-41
2023/02/06 10:00:36;;;;;;;10.38;2.70;;;7.70;99.90;;;;;;5028562;28;20032;-37
2023/02/06 10:03:18;;;;;;;14.30;3.40;;;7.80;99.90;;;;;;5032928;28;20064;-40
2023/02/06 10:06:14;;;;;;;25.85;2.75;;;7.90;99.90;;;;;;5028963;28;20033;-43
2023/02/06 10:09:00;;;;;;;17.58;3.05;;;7.90;99.90;;;;;;5032940;28;20036;-40
2023/02/06 10:11:53;;;;;;;19.27;2.97;;;7.90;99.90;;;;;;5031835;28;20525;-41
2023/02/06 10:14:45;;;;;;;13.63;2.25;;;7.90;99.90;;;;;;5033181;28;20482;-40
2023/02/06 10:17:25;;;;;;;15.45;3.42;;;8.00;99.90;;;;;;5023456;28;20129;-42
2023/02/06 10:20:10;;;;;;;13.55;3.10;;;8.10;99.90;;;;;;5024655;28;20029;-44
2023/02/06 10:22:57;;;;;;;23.90;3.40;;;8.10;99.90;;;;;;5031305;28;20100;-37
2023/02/06 10:25:33;;;;;;;26.92;3.38;;;8.10;99.90;;;;;;5027127;28;20021;-42
2023/02/06 10:28:18;;;;;;;13.85;2.38;;;8.20;99.90;;;;;;5017735;28;20040;-43
2023/02/06 10:31:13;;;;;;;23.42;2.50;;;8.20;99.90;;;;;;5015806;28;20040;-42
2023/02/06 10:33:58;;;;;;;15.30;3.78;;;8.10;99.90;;;;;;5032101;28;20536;-35
2023/02/06 10:36:46;;;;;;;13.57;2.92;;;8.20;99.90;;;;;;5026557;28;20474;-39
2023/02/06 10:39:33;;;;;;;20.48;3.30;;;8.10;99.90;;;;;;5025761;28;20470;-39
2023/02/06 10:42:22;;;;;;;36.10;4.50;;;8.10;99.90;;;;;;5031125;28;20030;-38
2023/02/06 10:45:07;;;;;;;32.50;4.72;;;8.20;99.90;;;;;;5027381;28;20037;-39
2023/02/06 10:47:40;;;;;;;23.50;3.13;;;8.30;99.90;;;;;;5030405;28;20040;-37
2023/02/06 10:50:24;;;;;;;21.08;2.83;;;8.40;99.90;;;;;;5032382;28;20095;-40
2023/02/06 10:52:51;;;;;;;17.27;2.83;;;8.40;99.90;;;;;;5030419;28;20044;-37
2023/02/06 10:55:27;;;;;;;21.25;2.83;;;8.50;99.90;;;;;;5022709;28;20029;-39
2023/02/06 10:58:16;;;;;;;16.25;3.20;;;8.50;99.90;;;;;;5031274;28;20033;-36
2023/02/06 11:00:43;;;;;;;23.30;3.83;;;8.60;99.90;;;;;;5032568;28;20377;-36
2023/02/06 11:03:16;;;;;;;19.70;3.50;;;8.60;99.90;;;;;;5027290;28;20049;-39
2023/02/06 11:05:42;;;;;;;18.45;2.80;;;8.60;99.90;;;;;;5026447;28;20014;-41
2023/02/06 11:08:24;;;;;;;21.65;2.13;;;8.80;99.90;;;;;;5031644;28;20465;-37
2023/02/06 11:10:50;;;;;;;20.42;2.60;;;8.70;99.90;;;;;;5031702;28;20025;-39
2023/02/06 11:13:28;;;;;;;21.52;3.97;;;8.70;99.90;;;;;;5031259;28;20033;-40
2023/02/06 11:16:15;;;;;;;15.85;1.83;;;8.60;99.90;;;;;;5032364;28;20489;-40
2023/02/06 11:18:44;;;;;;;9.25;1.75;;;8.70;99.90;;;;;;5025223;28;20033;-41
2023/02/06 11:21:12;;;;;;;14.68;2.80;;;8.70;99.90;;;;;;5029449;28;20017;-39
2023/02/06 11:23:39;;;;;;;20.63;2.47;;;8.60;99.90;;;;;;5033210;28;20490;-42
2023/02/06 11:26:15;;;;;;;21.45;2.67;;;8.50;99.90;;;;;;5035441;28;20053;-36
2023/02/06 11:28:55;;;;;;;12.25;2.40;;;8.60;99.90;;;;;;5033694;28;20125;-38
2023/02/06 11:31:41;;;;;;;15.38;2.72;;;8.80;99.90;;;;;;5034311;28;20057;-33
2023/02/06 11:34:27;;;;;;;13.95;2.40;;;8.90;99.90;;;;;;5035829;28;20497;-36
2023/02/06 11:36:56;;;;;;;5.18;1.52;;;9.10;99.90;;;;;;5033302;28;20044;-38
2023/02/06 11:39:32;;;;;;;20.20;1.75;;;8.90;99.90;;;;;;5024330;28;20033;-39
2023/02/06 11:42:01;;;;;;;20.02;3.05;;;9.00;99.90;;;;;;5034906;28;20032;-37
2023/02/06 11:44:39;;;;;;;10.40;2.83;;;9.10;99.90;;;;;;5035980;28;20039;-38
2023/02/06 11:47:23;;;;;;;;;;;9.10;99.90;;;;;;5035806;28;20486;-37
2023/02/06 11:49:49;;;;;;;15.68;2.20;;;9.00;99.90;;;;;;5019152;28;20286;-36
2023/02/06 11:52:32;;;;;;;20.05;3.00;;;8.90;99.90;;;;;;5023228;28;20029;-39
2023/02/06 11:55:01;;;;;;;7.63;1.65;;;8.90;99.90;;;;;;5033229;28;20584;-34
2023/02/06 11:57:29;;;;;;;12.38;1.98;;;8.80;99.90;;;;;;5022944;28;20026;-40
2023/02/06 12:00:00;;;;;;;13.40;1.95;;;8.80;99.90;;;;;;5027274;28;20030;-37
2023/02/06 12:02:30;;;;;;;9.00;2.00;;;8.70;99.90;;;;;;5023782;28;20086;-37
2023/02/06 12:05:16;;;;;;;10.60;1.48;;;8.80;99.90;;;;;;5027512;28;20160;-39
2023/02/06 12:07:48;;;;;;;21.15;1.95;;;9.00;99.90;;;;;;5027069;28;20509;-35
2023/02/06 12:10:16;;;;;;;15.00;2.13;;;9.30;99.90;;;;;;5025850;28;20017;-37
2023/02/06 12:13:02;;;;;;;;;;;9.30;99.90;;;;;;5027758;28;20029;-40
2023/02/06 12:15:35;;;;;;;15.43;2.85;;;9.50;99.90;;;;;;5028878;28;20432;-35
2023/02/06 12:18:05;;;;;;;16.90;2.33;;;9.40;99.90;;;;;;5025559;28;20533;-38
2023/02/06 12:20:34;;;;;;;9.45;1.55;;;9.30;99.90;;;;;;5030125;28;20041;-41
2023/02/06 12:23:10;;;;;;;21.33;3.03;;;9.20;99.90;;;;;;5018052;28;20037;-38
2023/02/06 12:25:42;;;;;;;15.95;1.73;;;9.10;99.90;;;;;;5016662;28;20148;-39
2023/02/06 12:28:32;;;;;;;11.18;1.88;;;9.10;99.90;;;;;;5022281;28;20112;-36
2023/02/06 12:31:07;;;;;;;12.00;2.15;;;9.00;99.90;;;;;;5024182;28;20026;-38
2023/02/06 12:34:03;;;;;;;10.52;2.35;;;9.10;99.90;;;;;;5023030;28;20385;-37
2023/02/06 12:36:36;;;;;;;11.32;1.27;;;9.10;99.90;;;;;;5029062;28;20028;-36
2023/02/06 12:39:18;;;;;;;20.55;2.10;;;9.10;99.90;;;;;;5033124;28;20033;-39
2023/02/06 12:42:03;;;;;;;13.60;1.75;;;9.00;99.90;;;;;;5026564;28;20018;-36
2023/02/06 12:44:55;;;;;;;8.02;1.63;;;9.10;99.90;;;;;;5019428;28;20040;-38
2023/02/06 12:47:32;;;;;;;18.42;2.60;;;9.30;99.90;;;;;;5034410;28;20481;-36
2023/02/06 12:50:15;;;;;;;20.80;1.80;;;9.60;99.90;;;;;;5026988;28;20030;-39
2023/02/06 12:52:40;;;;;;;21.08;1.52;;;9.90;99.90;;;;;;5031028;28;20091;-40
2023/02/06 12:55:19;;;;;;;5.95;2.47;;;10.00;99.90;;;;;;5031279;28;20429;-38
2023/02/06 12:57:44;;;;;;;10.05;2.25;;;9.90;99.90;;;;;;5024140;28;20112;-35
2023/02/06 13:00:47;;;;;;;12.80;1.50;;;9.80;99.90;;;;;;5027061;28;20509;-36
2023/02/06 13:03:39;;;;;;;11.40;2.45;;;9.70;99.90;;;;;;5021679;28;20105;-37
2023/02/06 13:06:11;;;;;;;17.13;1.80;;;9.70;99.90;;;;;;5015160;28;20077;-34
2023/02/06 13:08:52;;;;;;;17.77;1.95;;;9.70;99.90;;;;;;5014771;28;20026;-39
2023/02/06 13:11:33;;;;;;;16.02;2.35;;;9.60;99.90;;;;;;5021458;28;20497;-32
2023/02/06 13:14:23;;;;;;;16.15;1.63;;;9.80;99.90;;;;;;5033987;28;20492;-36
2023/02/06 13:16:54;;;;;;;21.13;2.00;;;9.90;99.90;;;;;;5032838;28;20502;-37